createdAt,value
2022-08-27T00:01:23.849Z,27.45
2022-08-27T00:03:51.564Z,27.42
2022-08-27T00:06:20.212Z,27.41
2022-08-27T00:08:48.638Z,27.41
2022-08-27T00:11:16.749Z,27.40
2022-08-27T00:13:44.616Z,27.39
2022-08-27T00:16:13.267Z,27.39
2022-08-27T00:18:42.436Z,26.92
2022-08-27T00:21:10.282Z,27.37
2022-08-27T00:23:38.161Z,27.36
2022-08-27T00:26:06.282Z,27.36
2022-08-27T00:28:34.152Z,27.01
2022-08-27T00:31:02.060Z,27.24
2022-08-27T00:33:30.556Z,27.31
2022-08-27T00:35:59.666Z,27.08
2022-08-27T00:38:27.368Z,27.30
2022-08-27T00:40:55.394Z,26.76
2022-08-27T00:43:24.170Z,27.29
2022-08-27T00:45:51.998Z,27.29
2022-08-27T00:48:20.365Z,27.27
2022-08-27T00:50:50.392Z,27.26
2022-08-27T00:53:20.142Z,27.23
2022-08-27T00:55:49.033Z,27.23
2022-08-27T00:58:19.033Z,27.22
2022-08-27T01:00:47.270Z,27.20
2022-08-27T01:03:15.077Z,27.20
2022-08-27T01:05:43.103Z,27.08
2022-08-27T01:08:12.915Z,27.18
2022-08-27T01:10:42.074Z,27.18
2022-08-27T01:13:10.119Z,27.17
2022-08-27T01:15:37.859Z,26.84
2022-08-27T01:18:06.820Z,27.15
2022-08-27T01:20:39.411Z,27.09
2022-08-27T01:23:11.110Z,27.16
2022-08-27T01:25:42.283Z,27.14
2022-08-27T01:28:10.158Z,27.13
2022-08-27T01:30:37.983Z,27.12
2022-08-27T01:33:10.343Z,27.11
2022-08-27T01:35:40.207Z,27.11
2022-08-27T01:38:09.481Z,27.08
2022-08-27T01:40:48.231Z,27.05
2022-08-27T01:43:15.959Z,27.07
2022-08-27T01:45:46.338Z,26.62
2022-08-27T01:48:14.073Z,27.06
2022-08-27T01:50:41.885Z,27.06
2022-08-27T01:53:11.499Z,26.82
2022-08-27T01:55:39.346Z,26.98
2022-08-27T01:58:09.811Z,26.94
2022-08-27T02:00:44.481Z,26.78
2022-08-27T02:03:12.363Z,27.01
2022-08-27T02:05:44.630Z,27.00
2022-08-27T02:08:13.190Z,26.54
2022-08-27T02:10:41.190Z,27.00
2022-08-27T02:13:10.295Z,26.98
2022-08-27T02:15:38.092Z,26.98
2022-08-27T02:18:05.953Z,26.97
2022-08-27T02:20:33.738Z,26.55
2022-08-27T02:23:01.546Z,26.91
2022-08-27T02:25:29.725Z,26.94
2022-08-27T02:28:00.181Z,26.67
2022-08-27T02:30:32.118Z,26.59
2022-08-27T02:33:00.927Z,26.91
2022-08-27T02:35:29.342Z,26.56
2022-08-27T02:37:57.087Z,26.89
2022-08-27T02:40:25.516Z,26.90
2022-08-27T02:42:53.302Z,26.89
2022-08-27T02:45:21.116Z,26.88
2022-08-27T02:47:50.229Z,26.86
2022-08-27T02:50:18.010Z,26.82
2022-08-27T02:52:46.613Z,26.83
2022-08-27T02:55:17.322Z,26.30
2022-08-27T02:57:45.246Z,26.81
2022-08-27T03:00:14.660Z,26.81
2022-08-27T03:02:42.427Z,26.79
2022-08-27T03:05:12.972Z,26.77
2022-08-27T03:07:40.686Z,26.78
2022-08-27T03:10:08.752Z,26.75
2022-08-27T03:12:36.871Z,26.73
2022-08-27T03:15:04.742Z,26.74
2022-08-27T03:17:50.211Z,26.65
2022-08-27T03:20:19.417Z,26.72
2022-08-27T03:22:47.170Z,26.71
2022-08-27T03:25:15.014Z,26.70
2022-08-27T03:27:42.726Z,26.69
2022-08-27T03:30:18.251Z,26.69
2022-08-27T03:32:46.292Z,26.67
2022-08-27T03:35:14.032Z,26.67
2022-08-27T03:37:43.380Z,26.64
2022-08-27T03:40:12.020Z,26.63
2022-08-27T03:42:41.686Z,26.18
2022-08-27T03:45:10.383Z,26.63
2022-08-27T03:47:38.155Z,26.63
2022-08-27T03:50:07.060Z,26.63
2022-08-27T03:52:34.974Z,26.63
2022-08-27T03:55:04.699Z,26.62
2022-08-27T03:57:32.431Z,26.61
2022-08-27T04:00:00.232Z,26.61
2022-08-27T04:02:28.023Z,26.61
2022-08-27T04:04:57.795Z,26.59
2022-08-27T04:07:25.572Z,26.57
2022-08-27T04:09:53.250Z,26.57
2022-08-27T04:12:22.323Z,26.58
2022-08-27T04:14:50.022Z,26.57
2022-08-27T04:17:17.751Z,26.56
2022-08-27T04:19:45.444Z,26.55
2022-08-27T04:22:14.950Z,26.52
2022-08-27T04:24:42.947Z,26.23
2022-08-27T04:27:11.096Z,26.51
2022-08-27T04:29:40.584Z,26.51
2022-08-27T04:32:08.321Z,26.49
2022-08-27T04:34:36.915Z,26.46
2022-08-27T04:37:05.446Z,26.48
2022-08-27T04:39:33.163Z,26.47
2022-08-27T04:42:01.298Z,26.45
2022-08-27T04:44:30.552Z,26.43
2022-08-27T04:47:00.766Z,26.37
2022-08-27T04:49:28.789Z,26.44
2022-08-27T04:51:56.534Z,26.04
2022-08-27T04:54:32.383Z,26.46
2022-08-27T04:57:01.164Z,26.43
2022-08-27T04:59:28.911Z,26.41
2022-08-27T05:01:56.664Z,26.42
2022-08-27T05:04:26.698Z,26.42
2022-08-27T05:06:54.870Z,26.39
2022-08-27T05:09:24.578Z,26.38
2022-08-27T05:11:55.591Z,26.31
2022-08-27T05:14:24.172Z,26.34
2022-08-27T05:16:51.960Z,26.13
2022-08-27T05:19:19.692Z,26.34
2022-08-27T05:21:49.432Z,26.05
2022-08-27T05:24:17.627Z,26.32
2022-08-27T05:26:45.582Z,26.17
2022-08-27T05:29:14.088Z,26.31
2022-08-27T05:31:42.138Z,25.96
2022-08-27T05:34:10.437Z,26.31
2022-08-27T05:36:48.964Z,26.29
2022-08-27T05:39:18.402Z,26.27
2022-08-27T05:41:46.126Z,26.28
2022-08-27T05:47:03.832Z,26.26
2022-08-27T05:49:31.794Z,26.27
2022-08-27T05:51:59.498Z,26.29
2022-08-27T05:54:28.596Z,26.22
2022-08-27T05:56:56.310Z,26.22
2022-08-27T05:59:53.175Z,26.24
2022-08-27T06:02:20.905Z,26.22
2022-08-27T06:04:48.909Z,25.94
2022-08-27T06:07:16.791Z,26.24
2022-08-27T06:09:45.874Z,26.22
2022-08-27T06:12:13.593Z,26.21
2022-08-27T06:14:41.347Z,26.20
2022-08-27T06:17:09.046Z,26.20
2022-08-27T06:19:36.794Z,26.19
2022-08-27T06:22:10.717Z,26.18
2022-08-27T06:24:40.095Z,26.17
2022-08-27T06:27:10.442Z,26.17
2022-08-27T06:29:38.196Z,26.17
2022-08-27T06:32:06.118Z,26.17
2022-08-27T06:34:34.165Z,26.16
2022-08-27T06:37:01.890Z,26.14
2022-08-27T06:39:30.839Z,26.14
2022-08-27T06:41:58.654Z,26.14
2022-08-27T06:44:27.795Z,26.14
2022-08-27T06:46:55.687Z,26.14
2022-08-27T06:49:23.947Z,26.08
2022-08-27T06:51:51.654Z,26.11
2022-08-27T06:54:20.104Z,26.10
2022-08-27T06:56:49.208Z,26.11
2022-08-27T06:59:17.849Z,25.90
2022-08-27T07:01:48.542Z,25.72
2022-08-27T07:04:19.190Z,25.93
2022-08-27T07:06:46.911Z,26.10
2022-08-27T07:09:14.717Z,26.10
2022-08-27T07:11:42.943Z,26.11
2022-08-27T07:14:10.732Z,25.77
2022-08-27T07:16:40.862Z,26.10
2022-08-27T07:19:10.651Z,26.09
2022-08-27T07:21:39.858Z,26.07
2022-08-27T07:24:09.144Z,26.07
2022-08-27T07:26:38.288Z,26.05
2022-08-27T07:29:06.205Z,26.06
2022-08-27T07:31:35.612Z,25.74
2022-08-27T07:34:03.424Z,26.02
2022-08-27T07:36:32.520Z,26.04
2022-08-27T07:39:01.562Z,26.01
2022-08-27T07:41:31.202Z,26.00
2022-08-27T07:44:17.342Z,26.01
2022-08-27T07:46:48.018Z,26.02
2022-08-27T07:49:17.348Z,26.01
2022-08-27T07:51:46.568Z,25.97
2022-08-27T07:54:14.404Z,25.99
2022-08-27T07:56:42.304Z,25.98
2022-08-27T07:59:12.419Z,25.97
2022-08-27T08:01:42.243Z,25.99
2022-08-27T08:04:10.457Z,25.98
2022-08-27T08:06:39.741Z,25.91
2022-08-27T08:09:10.651Z,25.99
2022-08-27T08:11:39.369Z,25.99
2022-08-27T08:14:07.142Z,25.97
2022-08-27T08:16:34.921Z,25.98
2022-08-27T08:19:02.704Z,25.98
2022-08-27T08:21:30.719Z,25.99
2022-08-27T08:23:58.752Z,26.00
2022-08-27T08:26:27.801Z,25.96
2022-08-27T08:28:55.592Z,25.99
2022-08-27T08:31:24.531Z,25.99
2022-08-27T08:33:52.904Z,25.98
2022-08-27T08:36:20.636Z,25.98
2022-08-27T08:38:49.492Z,25.61
2022-08-27T08:41:33.405Z,26.00
2022-08-27T08:44:05.475Z,25.61
2022-08-27T08:46:35.040Z,25.98
2022-08-27T08:49:05.620Z,25.55
2022-08-27T08:51:35.613Z,25.97
2022-08-27T08:54:03.686Z,25.95
2022-08-27T08:56:37.666Z,25.64
2022-08-27T08:59:09.400Z,25.94
2022-08-27T09:01:37.243Z,25.95
2022-08-27T09:04:06.003Z,25.95
2022-08-27T09:06:38.753Z,25.73
2022-08-27T09:09:13.665Z,25.75
2022-08-27T09:11:45.611Z,25.96
2022-08-27T09:14:20.401Z,25.85
2022-08-27T09:16:50.899Z,25.95
2022-08-27T09:19:24.795Z,25.97
2022-08-27T09:21:57.972Z,25.97
2022-08-27T09:24:29.881Z,25.97
2022-08-27T09:26:58.942Z,25.97
2022-08-27T09:29:27.525Z,25.75
2022-08-27T09:31:57.423Z,25.98
2022-08-27T09:34:25.173Z,25.95
2022-08-27T09:36:56.246Z,25.95
2022-08-27T09:39:28.799Z,25.98
2022-08-27T09:41:58.527Z,26.00
2022-08-27T09:44:26.506Z,26.02
2022-08-27T09:46:55.635Z,26.04
2022-08-27T09:49:24.217Z,26.05
2022-08-27T09:51:51.940Z,25.97
2022-08-27T09:54:44.135Z,26.10
2022-08-27T09:57:13.967Z,26.11
2022-08-27T09:59:44.252Z,25.74
2022-08-27T10:02:15.783Z,26.13
2022-08-27T10:04:51.069Z,26.15
2022-08-27T10:07:31.680Z,25.91
2022-08-27T10:10:03.499Z,25.76
2022-08-27T10:12:35.356Z,25.93
2022-08-27T10:15:03.709Z,26.14
2022-08-27T10:17:38.301Z,26.03
2022-08-27T10:20:11.609Z,25.95
2022-08-27T10:22:47.753Z,26.24
2022-08-27T10:25:24.311Z,26.26
2022-08-27T10:27:58.070Z,26.27
2022-08-27T10:30:29.248Z,26.27
2022-08-27T10:33:03.841Z,26.28
2022-08-27T10:35:35.078Z,25.78
2022-08-27T10:38:16.192Z,25.96
2022-08-27T10:40:46.425Z,26.28
2022-08-27T10:43:36.046Z,25.82
2022-08-27T10:46:06.056Z,26.24
2022-08-27T10:48:36.276Z,26.23
2022-08-27T10:51:08.457Z,26.24
2022-08-27T10:53:37.777Z,26.23
2022-08-27T10:56:13.918Z,26.20
2022-08-27T10:58:49.023Z,25.93
2022-08-27T11:01:20.804Z,26.20
2022-08-27T11:03:51.763Z,26.21
2022-08-27T11:06:24.288Z,26.19
2022-08-27T11:08:53.439Z,26.18
2022-08-27T11:12:09.989Z,26.17
2022-08-27T11:14:17.780Z,26.16
2022-08-27T11:16:48.125Z,26.14
2022-08-27T11:19:17.871Z,26.11
2022-08-27T11:21:47.617Z,26.13
2022-08-27T11:24:23.927Z,26.12
2022-08-27T11:26:51.857Z,26.09
2022-08-27T11:29:25.444Z,26.12
2022-08-27T11:31:56.731Z,25.71
2022-08-27T11:34:28.085Z,26.07
2022-08-27T11:37:14.249Z,25.98
2022-08-27T11:39:52.067Z,25.77
2022-08-27T11:42:21.852Z,26.07
2022-08-27T11:44:51.086Z,26.05
2022-08-27T11:47:21.426Z,26.04
2022-08-27T11:49:51.988Z,25.86
2022-08-27T11:52:24.952Z,26.03
2022-08-27T11:54:53.947Z,25.69
2022-08-27T11:57:29.959Z,26.03
2022-08-27T11:59:59.090Z,26.03
2022-08-27T12:02:27.736Z,26.02
2022-08-27T12:04:57.735Z,25.49
2022-08-27T12:07:27.351Z,26.00
2022-08-27T12:10:02.000Z,25.60
2022-08-27T12:12:34.359Z,25.29
2022-08-27T12:15:06.473Z,26.00
2022-08-27T12:17:38.817Z,26.00
2022-08-27T12:20:12.179Z,26.00
2022-08-27T12:23:06.775Z,26.00
2022-08-27T12:25:34.510Z,25.99
2022-08-27T12:28:04.804Z,25.81
2022-08-27T12:30:34.601Z,25.67
2022-08-27T12:33:10.012Z,25.97
2022-08-27T12:35:44.663Z,25.74
2022-08-27T12:38:16.037Z,25.96
2022-08-27T12:40:48.384Z,25.97
2022-08-27T12:43:19.138Z,25.96
2022-08-27T12:45:49.018Z,25.88
2022-08-27T12:48:20.525Z,25.95
2022-08-27T12:50:52.695Z,25.97
2022-08-27T12:53:43.687Z,25.96
2022-08-27T12:56:35.934Z,25.92
2022-08-27T12:59:10.920Z,25.96
2022-08-27T13:01:50.098Z,25.95
2022-08-27T13:04:21.539Z,25.95
2022-08-27T13:06:49.413Z,25.95
2022-08-27T13:09:17.131Z,25.95
2022-08-27T13:11:46.694Z,25.66
2022-08-27T13:14:16.486Z,25.94
2022-08-27T13:16:51.317Z,25.95
2022-08-27T13:19:22.878Z,25.66
2022-08-27T13:21:51.019Z,25.58
2022-08-27T13:24:20.953Z,25.73
2022-08-27T13:26:48.996Z,25.93
2022-08-27T13:29:16.748Z,25.94
2022-08-27T13:31:45.856Z,25.96
2022-08-27T13:34:13.820Z,25.94
2022-08-27T13:36:53.855Z,25.84
2022-08-27T13:39:21.735Z,25.95
2022-08-27T13:41:49.471Z,25.96
2022-08-27T13:44:21.789Z,25.97
2022-08-27T13:46:51.765Z,25.97
2022-08-27T13:49:21.923Z,25.95
2022-08-27T13:51:49.931Z,25.96
2022-08-27T13:54:18.034Z,25.97
2022-08-27T13:57:03.633Z,25.99
2022-08-27T13:59:31.765Z,25.83
2022-08-27T14:02:02.073Z,26.00
2022-08-27T14:04:39.434Z,25.79
2022-08-27T14:07:09.136Z,25.75
2022-08-27T14:09:42.758Z,26.02
2022-08-27T14:12:10.614Z,26.03
2022-08-27T14:14:38.972Z,26.04
2022-08-27T14:17:09.534Z,26.03
2022-08-27T14:19:39.998Z,26.03
2022-08-27T14:22:07.927Z,26.03
2022-08-27T14:24:35.648Z,26.02
2022-08-27T14:27:05.409Z,26.02
2022-08-27T14:29:33.115Z,26.02
2022-08-27T14:32:00.832Z,25.95
2022-08-27T14:34:29.888Z,26.04
2022-08-27T14:36:58.063Z,26.02
2022-08-27T14:39:26.458Z,25.97
2022-08-27T14:41:54.760Z,26.00
2022-08-27T14:44:22.658Z,25.96
2022-08-27T14:46:51.144Z,26.00
2022-08-27T14:49:23.188Z,25.99
2022-08-27T14:51:52.242Z,26.00
2022-08-27T14:54:19.985Z,25.98
2022-08-27T14:56:47.714Z,25.98
2022-08-27T14:59:15.436Z,25.97
2022-08-27T15:01:43.200Z,25.96
2022-08-27T15:04:10.944Z,25.96
2022-08-27T15:06:38.698Z,25.96
2022-08-27T15:09:07.892Z,25.96
2022-08-27T15:11:36.727Z,25.80
2022-08-27T15:14:05.788Z,25.90
2022-08-27T15:16:34.880Z,25.79
2022-08-27T15:19:02.893Z,25.95
2022-08-27T15:21:30.680Z,25.95
2022-08-27T15:23:59.478Z,25.93
2022-08-27T15:26:28.648Z,25.94
2022-08-27T15:28:56.347Z,25.94
2022-08-27T15:31:24.177Z,25.93
2022-08-27T15:33:51.931Z,25.92
2022-08-27T15:36:19.930Z,25.91
2022-08-27T15:38:47.615Z,25.87
2022-08-27T15:41:15.332Z,25.91
2022-08-27T15:43:44.481Z,25.62
2022-08-27T15:46:12.276Z,25.60
2022-08-27T15:48:40.002Z,25.88
2022-08-27T15:51:10.636Z,25.50
2022-08-27T15:53:38.787Z,25.71
2022-08-27T15:56:08.095Z,25.67
2022-08-27T15:58:36.296Z,25.86
2022-08-27T16:01:07.558Z,25.87
2022-08-27T16:03:36.045Z,25.85
2022-08-27T16:06:05.181Z,25.69
2022-08-27T16:08:34.442Z,25.45
2022-08-27T16:11:04.808Z,25.82
2022-08-27T16:13:32.704Z,25.62
2022-08-27T16:16:00.525Z,25.82
2022-08-27T16:18:30.488Z,25.80
2022-08-27T16:20:58.139Z,25.77
2022-08-27T16:23:26.155Z,25.79
2022-08-27T16:25:53.907Z,25.79
2022-08-27T16:28:21.622Z,25.78
2022-08-27T16:30:49.717Z,25.78
2022-08-27T16:33:17.475Z,25.76
2022-08-27T16:38:09.809Z,25.75
2022-08-27T16:40:39.662Z,25.75
2022-08-27T16:43:07.267Z,25.73
2022-08-27T16:45:35.041Z,25.74
2022-08-27T16:48:20.222Z,25.76
2022-08-27T16:50:47.937Z,25.77
2022-08-27T16:53:18.322Z,25.66
2022-08-27T16:55:47.424Z,25.63
2022-08-27T16:58:17.926Z,25.23
2022-08-27T17:00:45.919Z,25.77
2022-08-27T17:03:13.631Z,25.77
2022-08-27T17:05:41.347Z,25.77
2022-08-27T17:08:11.643Z,25.77
2022-08-27T17:10:45.762Z,25.76
2022-08-27T17:13:14.498Z,25.75
2022-08-27T17:15:42.307Z,25.73
2022-08-27T17:18:10.068Z,25.67
2022-08-27T17:20:37.860Z,25.73
2022-08-27T17:23:05.738Z,25.72
2022-08-27T17:25:33.960Z,25.72
2022-08-27T17:28:03.286Z,25.72
2022-08-27T17:30:31.801Z,25.70
2022-08-27T17:32:59.510Z,25.70
2022-08-27T17:35:27.242Z,25.69
2022-08-27T17:37:54.965Z,25.68
2022-08-27T17:40:22.788Z,25.68
2022-08-27T17:42:50.600Z,25.67
2022-08-27T17:45:19.658Z,25.65
2022-08-27T17:47:47.424Z,25.65
2022-08-27T17:50:15.115Z,25.64
2022-08-27T17:52:42.886Z,25.64
2022-08-27T17:55:10.816Z,25.63
2022-08-27T17:57:40.451Z,25.62
2022-08-27T18:00:10.507Z,25.61
2022-08-27T18:02:42.171Z,25.13
2022-08-27T18:05:13.090Z,25.60
2022-08-27T18:07:41.021Z,25.60
2022-08-27T18:10:10.026Z,25.60
2022-08-27T18:12:37.747Z,25.58
2022-08-27T18:15:07.859Z,25.59
2022-08-27T18:17:35.761Z,25.57
2022-08-27T18:20:05.520Z,25.25
2022-08-27T18:22:38.812Z,25.55
2022-08-27T18:25:09.460Z,25.54
2022-08-27T18:27:37.236Z,25.54
2022-08-27T18:30:05.837Z,25.04
2022-08-27T18:32:33.564Z,25.55
2022-08-27T18:35:04.739Z,25.53
2022-08-27T18:37:32.498Z,25.52
2022-08-27T18:40:00.335Z,25.53
2022-08-27T18:42:28.095Z,25.27
2022-08-27T18:44:55.928Z,25.53
2022-08-27T18:47:23.676Z,25.51
2022-08-27T18:49:51.575Z,25.50
2022-08-27T18:52:20.648Z,25.14
2022-08-27T18:54:48.391Z,25.49
2022-08-27T18:57:16.107Z,25.47
2022-08-27T18:59:43.798Z,25.46
2022-08-27T19:02:17.370Z,25.47
2022-08-27T19:04:45.884Z,25.46
2022-08-27T19:07:13.684Z,25.45
2022-08-27T19:09:43.030Z,25.45
2022-08-27T19:12:12.911Z,25.43
2022-08-27T19:14:43.735Z,25.41
2022-08-27T19:17:15.644Z,25.30
2022-08-27T19:19:43.760Z,25.42
2022-08-27T19:22:11.490Z,25.41
2022-08-27T19:24:40.088Z,25.40
2022-08-27T19:27:09.511Z,25.40
2022-08-27T19:29:37.231Z,25.09
2022-08-27T19:32:05.025Z,25.35
2022-08-27T19:34:32.781Z,25.25
2022-08-27T19:37:00.648Z,25.16
2022-08-27T19:39:28.396Z,25.34
2022-08-27T19:41:56.192Z,25.33
2022-08-27T19:44:25.225Z,25.25
2022-08-27T19:46:52.977Z,25.32
2022-08-27T19:49:20.719Z,25.33
2022-08-27T19:51:48.457Z,25.33
2022-08-27T19:54:16.164Z,25.32
2022-08-27T19:56:43.900Z,25.31
2022-08-27T19:59:20.640Z,25.19
2022-08-27T20:01:50.707Z,25.30
2022-08-27T20:04:18.488Z,25.28
2022-08-27T20:06:46.277Z,25.28
2022-08-27T20:09:16.137Z,25.26
2022-08-27T20:11:45.939Z,25.27
2022-08-27T20:14:13.686Z,25.27
2022-08-27T20:16:41.655Z,25.05
2022-08-27T20:19:11.428Z,25.27
2022-08-27T20:21:39.328Z,25.08
2022-08-27T20:24:07.369Z,25.25
2022-08-27T20:26:35.147Z,25.25
2022-08-27T20:29:02.993Z,25.23
2022-08-27T20:31:30.861Z,25.23
2022-08-27T20:33:58.579Z,25.23
2022-08-27T20:36:29.397Z,25.23
2022-08-27T20:38:57.137Z,25.20
2022-08-27T20:41:25.102Z,25.21
2022-08-27T20:43:52.938Z,25.21
2022-08-27T20:46:22.155Z,24.91
2022-08-27T20:48:49.900Z,25.18
2022-08-27T20:51:17.688Z,25.17
2022-08-27T20:53:46.728Z,25.18
2022-08-27T20:56:14.556Z,24.49
2022-08-27T20:59:00.066Z,25.16
2022-08-27T21:01:27.966Z,25.16
2022-08-27T21:03:57.789Z,25.16
2022-08-27T21:06:26.665Z,25.15
2022-08-27T21:08:55.924Z,25.10
2022-08-27T21:11:23.892Z,25.15
2022-08-27T21:13:56.395Z,25.14
2022-08-27T21:16:24.683Z,25.11
2022-08-27T21:18:53.684Z,25.12
2022-08-27T21:21:21.427Z,25.09
2022-08-27T21:23:49.353Z,25.09
2022-08-27T21:26:19.667Z,25.09
2022-08-27T21:28:47.356Z,25.10
2022-08-27T21:31:15.100Z,25.06
2022-08-27T21:33:42.878Z,25.05
2022-08-27T21:36:12.334Z,25.05
2022-08-27T21:38:40.323Z,25.05
2022-08-27T21:41:08.139Z,25.05
2022-08-27T21:43:37.222Z,25.04
2022-08-27T21:46:05.205Z,24.76
2022-08-27T21:48:32.974Z,25.01
2022-08-27T21:51:00.701Z,25.01
2022-08-27T21:53:30.135Z,24.99
2022-08-27T21:55:57.860Z,24.98
2022-08-27T21:58:26.739Z,24.96
2022-08-27T22:00:56.209Z,24.70
2022-08-27T22:03:24.384Z,24.81
2022-08-27T22:05:52.478Z,24.96
2022-08-27T22:08:21.210Z,24.64
2022-08-27T22:10:50.193Z,24.95
2022-08-27T22:13:18.003Z,24.95
2022-08-27T22:15:45.862Z,24.57
2022-08-27T22:18:15.109Z,24.95
2022-08-27T22:20:42.979Z,24.92
2022-08-27T22:23:11.312Z,24.59
2022-08-27T22:25:39.389Z,24.88
2022-08-27T22:28:07.109Z,24.91
2022-08-27T22:30:35.017Z,24.47
2022-08-27T22:33:02.710Z,24.88
2022-08-27T22:35:31.883Z,24.88
2022-08-27T22:37:59.793Z,24.87
2022-08-27T22:40:28.364Z,24.49
2022-08-27T22:42:56.416Z,24.83
2022-08-27T22:45:24.566Z,24.83
2022-08-27T22:47:52.430Z,24.53
2022-08-27T22:50:20.335Z,24.82
2022-08-27T22:52:49.700Z,24.80
2022-08-27T22:55:19.391Z,24.66
2022-08-27T22:57:47.453Z,24.78
2022-08-27T23:00:17.846Z,24.60
2022-08-27T23:02:45.856Z,24.79
2022-08-27T23:05:13.866Z,24.75
2022-08-27T23:07:42.083Z,24.76
2022-08-27T23:10:12.146Z,24.77
2022-08-27T23:12:39.648Z,24.72
2022-08-27T23:15:12.357Z,24.71
2022-08-27T23:17:40.077Z,24.71
2022-08-27T23:20:09.052Z,24.72
2022-08-27T23:22:37.510Z,24.52
2022-08-27T23:25:23.450Z,24.70
2022-08-27T23:27:53.673Z,24.68
2022-08-27T23:30:22.351Z,24.67
2022-08-27T23:32:53.832Z,24.68
2022-08-27T23:35:22.571Z,24.65
2022-08-27T23:37:50.483Z,24.66
2022-08-27T23:40:18.506Z,24.63
2022-08-27T23:42:46.369Z,24.62
2022-08-27T23:45:17.280Z,24.62
2022-08-27T23:47:45.011Z,24.60
2022-08-27T23:50:12.992Z,24.61
2022-08-27T23:52:41.057Z,24.60
2022-08-27T23:55:09.665Z,24.60
2022-08-27T23:57:37.481Z,24.57
